sensor_id;sensor_type;location;lat;lon;timestamp;temperature;humidity
31207;DHT22;17834;52.992;8.856;2023-07-20T00:01:06;14.30;99.90
31207;DHT22;17834;52.992;8.856;2023-07-20T00:03:31;14.20;99.90
31207;DHT22;17834;52.992;8.856;2023-07-20T00:05:57;14.30;99.90
31207;DHT22;17834;52.992;8.856;2023-07-20T00:08:22;14.30;99.90
31207;DHT22;17834;52.992;8.856;2023-07-20T00:10:48;14.30;99.90
31207;DHT22;17834;52.992;8.856;2023-07-20T00:13:14;14.30;99.90
31207;DHT22;17834;52.992;8.856;2023-07-20T00:15:41;14.30;99.90
31207;DHT22;17834;52.992;8.856;2023-07-20T00:18:07;14.30;99.90
31207;DHT22;17834;52.992;8.856;2023-07-20T00:20:32;14.30;99.90
31207;DHT22;17834;52.992;8.856;2023-07-20T00:22:58;14.20;99.90
31207;DHT22;17834;52.992;8.856;2023-07-20T00:25:24;14.20;99.90
31207;DHT22;17834;52.992;8.856;2023-07-20T00:27:50;14.20;99.90
31207;DHT22;17834;52.992;8.856;2023-07-20T00:30:16;14.10;99.90
31207;DHT22;17834;52.992;8.856;2023-07-20T00:32:44;14.10;99.90
31207;DHT22;17834;52.992;8.856;2023-07-20T00:35:10;14.00;99.90
31207;DHT22;17834;52.992;8.856;2023-07-20T00:37:39;13.90;99.90
31207;DHT22;17834;52.992;8.856;2023-07-20T00:40:06;13.90;99.90
31207;DHT22;17834;52.992;8.856;2023-07-20T00:42:32;13.90;99.90
31207;DHT22;17834;52.992;8.856;2023-07-20T00:44:58;13.90;99.90
31207;DHT22;17834;52.992;8.856;2023-07-20T00:47:24;13.90;99.90
31207;DHT22;17834;52.992;8.856;2023-07-20T00:49:50;14.00;99.90
31207;DHT22;17834;52.992;8.856;2023-07-20T00:52:16;14.00;99.90
31207;DHT22;17834;52.992;8.856;2023-07-20T00:54:44;14.00;99.90
31207;DHT22;17834;52.992;8.856;2023-07-20T00:57:10;14.00;99.90
31207;DHT22;17834;52.992;8.856;2023-07-20T00:59:37;14.10;99.90
31207;DHT22;17834;52.992;8.856;2023-07-20T01:02:03;14.10;99.90
31207;DHT22;17834;52.992;8.856;2023-07-20T01:04:28;14.10;99.90
31207;DHT22;17834;52.992;8.856;2023-07-20T01:07:03;14.10;99.90
31207;DHT22;17834;52.992;8.856;2023-07-20T01:09:47;14.20;99.90
31207;DHT22;17834;52.992;8.856;2023-07-20T01:12:22;14.20;99.90
31207;DHT22;17834;52.992;8.856;2023-07-20T01:14:51;14.20;99.90
31207;DHT22;17834;52.992;8.856;2023-07-20T01:17:17;14.20;99.90
31207;DHT22;17834;52.992;8.856;2023-07-20T01:19:42;14.30;99.90
31207;DHT22;17834;52.992;8.856;2023-07-20T01:22:37;14.30;99.90
31207;DHT22;17834;52.992;8.856;2023-07-20T01:29:09;14.30;99.90
31207;DHT22;17834;52.992;8.856;2023-07-20T01:33:44;14.30;99.90
31207;DHT22;17834;52.992;8.856;2023-07-20T01:36:11;14.40;99.90
31207;DHT22;17834;52.992;8.856;2023-07-20T01:38:37;14.30;99.90
31207;DHT22;17834;52.992;8.856;2023-07-20T01:41:03;14.30;99.90
31207;DHT22;17834;52.992;8.856;2023-07-20T01:43:29;14.30;99.90
31207;DHT22;17834;52.992;8.856;2023-07-20T01:45:54;14.30;99.90
31207;DHT22;17834;52.992;8.856;2023-07-20T01:48:20;14.30;99.90
31207;DHT22;17834;52.992;8.856;2023-07-20T01:50:46;14.30;99.90
31207;DHT22;17834;52.992;8.856;2023-07-20T01:53:11;14.30;99.90
31207;DHT22;17834;52.992;8.856;2023-07-20T01:55:37;14.30;99.90
31207;DHT22;17834;52.992;8.856;2023-07-20T01:58:02;14.30;99.90
31207;DHT22;17834;52.992;8.856;2023-07-20T02:00:29;14.30;99.90
31207;DHT22;17834;52.992;8.856;2023-07-20T02:02:54;14.30;99.90
31207;DHT22;17834;52.992;8.856;2023-07-20T02:05:20;14.30;99.90
31207;DHT22;17834;52.992;8.856;2023-07-20T02:07:45;14.30;99.90
31207;DHT22;17834;52.992;8.856;2023-07-20T02:10:11;14.30;99.90
31207;DHT22;17834;52.992;8.856;2023-07-20T02:12:36;14.30;99.90
31207;DHT22;17834;52.992;8.856;2023-07-20T02:15:03;14.30;99.90
31207;DHT22;17834;52.992;8.856;2023-07-20T02:17:31;14.30;99.90
31207;DHT22;17834;52.992;8.856;2023-07-20T02:19:57;14.30;99.90
31207;DHT22;17834;52.992;8.856;2023-07-20T02:22:25;14.30;99.90
31207;DHT22;17834;52.992;8.856;2023-07-20T02:24:51;14.30;99.90
31207;DHT22;17834;52.992;8.856;2023-07-20T02:27:16;14.30;99.90
31207;DHT22;17834;52.992;8.856;2023-07-20T02:29:42;14.40;99.90
31207;DHT22;17834;52.992;8.856;2023-07-20T02:32:08;14.30;99.90
31207;DHT22;17834;52.992;8.856;2023-07-20T02:34:35;14.40;99.90
31207;DHT22;17834;52.992;8.856;2023-07-20T02:37:01;14.40;99.90
31207;DHT22;17834;52.992;8.856;2023-07-20T02:39:30;14.40;99.90
31207;DHT22;17834;52.992;8.856;2023-07-20T02:41:55;14.40;99.90
31207;DHT22;17834;52.992;8.856;2023-07-20T02:44:21;14.40;99.90
31207;DHT22;17834;52.992;8.856;2023-07-20T02:46:46;14.40;99.90
31207;DHT22;17834;52.992;8.856;2023-07-20T02:49:12;14.40;99.90
31207;DHT22;17834;52.992;8.856;2023-07-20T02:51:38;14.30;99.90
31207;DHT22;17834;52.992;8.856;2023-07-20T02:54:03;14.30;99.90
31207;DHT22;17834;52.992;8.856;2023-07-20T02:56:29;14.20;99.90
31207;DHT22;17834;52.992;8.856;2023-07-20T02:58:54;14.20;99.90
31207;DHT22;17834;52.992;8.856;2023-07-20T03:01:20;14.20;99.90
31207;DHT22;17834;52.992;8.856;2023-07-20T03:03:45;14.20;99.90
31207;DHT22;17834;52.992;8.856;2023-07-20T03:06:14;14.10;99.90
31207;DHT22;17834;52.992;8.856;2023-07-20T03:08:40;14.10;99.90
31207;DHT22;17834;52.992;8.856;2023-07-20T03:11:07;14.10;99.90
31207;DHT22;17834;52.992;8.856;2023-07-20T03:13:33;14.10;99.90
31207;DHT22;17834;52.992;8.856;2023-07-20T03:15:58;14.10;99.90
31207;DHT22;17834;52.992;8.856;2023-07-20T03:18:24;14.00;99.90
31207;DHT22;17834;52.992;8.856;2023-07-20T03:20:49;14.00;99.90
31207;DHT22;17834;52.992;8.856;2023-07-20T03:23:15;14.00;99.90
31207;DHT22;17834;52.992;8.856;2023-07-20T03:25:41;14.00;99.90
31207;DHT22;17834;52.992;8.856;2023-07-20T03:28:07;13.90;99.90
31207;DHT22;17834;52.992;8.856;2023-07-20T03:30:33;14.00;99.90
31207;DHT22;17834;52.992;8.856;2023-07-20T03:32:58;14.00;99.90
31207;DHT22;17834;52.992;8.856;2023-07-20T03:35:24;13.90;99.90
31207;DHT22;17834;52.992;8.856;2023-07-20T03:37:49;14.00;99.90
31207;DHT22;17834;52.992;8.856;2023-07-20T03:40:15;14.00;99.90
31207;DHT22;17834;52.992;8.856;2023-07-20T03:42:41;14.00;99.90
31207;DHT22;17834;52.992;8.856;2023-07-20T03:45:07;14.00;99.90
31207;DHT22;17834;52.992;8.856;2023-07-20T03:47:33;14.00;99.90
31207;DHT22;17834;52.992;8.856;2023-07-20T03:49:58;14.00;99.90
31207;DHT22;17834;52.992;8.856;2023-07-20T03:52:24;14.10;99.90
31207;DHT22;17834;52.992;8.856;2023-07-20T03:54:49;14.10;99.90
31207;DHT22;17834;52.992;8.856;2023-07-20T03:57:16;14.10;99.90
31207;DHT22;17834;52.992;8.856;2023-07-20T03:59:45;14.20;99.90
31207;DHT22;17834;52.992;8.856;2023-07-20T04:02:10;14.20;99.90
31207;DHT22;17834;52.992;8.856;2023-07-20T04:04:36;14.30;99.90
31207;DHT22;17834;52.992;8.856;2023-07-20T04:07:01;14.30;99.90
31207;DHT22;17834;52.992;8.856;2023-07-20T04:09:27;14.30;99.90
31207;DHT22;17834;52.992;8.856;2023-07-20T04:11:52;14.30;99.90
31207;DHT22;17834;52.992;8.856;2023-07-20T04:14:18;14.30;99.90
31207;DHT22;17834;52.992;8.856;2023-07-20T04:16:46;14.40;99.90
31207;DHT22;17834;52.992;8.856;2023-07-20T04:19:12;14.40;99.90
31207;DHT22;17834;52.992;8.856;2023-07-20T04:21:40;14.40;99.90
31207;DHT22;17834;52.992;8.856;2023-07-20T04:24:06;14.50;99.90
31207;DHT22;17834;52.992;8.856;2023-07-20T04:26:32;14.50;99.90
31207;DHT22;17834;52.992;8.856;2023-07-20T04:28:57;14.50;99.90
31207;DHT22;17834;52.992;8.856;2023-07-20T04:31:25;14.60;99.90
31207;DHT22;17834;52.992;8.856;2023-07-20T04:33:50;14.60;99.90
31207;DHT22;17834;52.992;8.856;2023-07-20T04:36:16;14.70;99.90
31207;DHT22;17834;52.992;8.856;2023-07-20T04:38:45;14.70;99.90
31207;DHT22;17834;52.992;8.856;2023-07-20T04:41:10;14.80;99.90
31207;DHT22;17834;52.992;8.856;2023-07-20T04:43:41;14.90;99.90
31207;DHT22;17834;52.992;8.856;2023-07-20T04:46:06;14.90;99.90
31207;DHT22;17834;52.992;8.856;2023-07-20T04:48:32;15.00;99.90
31207;DHT22;17834;52.992;8.856;2023-07-20T04:50:57;15.00;99.90
31207;DHT22;17834;52.992;8.856;2023-07-20T04:53:23;15.10;99.90
31207;DHT22;17834;52.992;8.856;2023-07-20T04:55:49;15.30;99.90
31207;DHT22;17834;52.992;8.856;2023-07-20T04:58:20;15.40;99.90
31207;DHT22;17834;52.992;8.856;2023-07-20T05:00:48;15.70;99.90
31207;DHT22;17834;52.992;8.856;2023-07-20T05:03:14;15.80;99.90
31207;DHT22;17834;52.992;8.856;2023-07-20T05:05:39;16.00;99.90
31207;DHT22;17834;52.992;8.856;2023-07-20T05:08:05;16.40;99.90
31207;DHT22;17834;52.992;8.856;2023-07-20T05:10:31;16.50;99.90
31207;DHT22;17834;52.992;8.856;2023-07-20T05:12:58;16.50;99.90
31207;DHT22;17834;52.992;8.856;2023-07-20T05:15:23;16.50;99.90
31207;DHT22;17834;52.992;8.856;2023-07-20T05:17:49;16.30;99.90
31207;DHT22;17834;52.992;8.856;2023-07-20T05:20:14;16.30;99.90
31207;DHT22;17834;52.992;8.856;2023-07-20T05:22:40;16.30;99.90
31207;DHT22;17834;52.992;8.856;2023-07-20T05:25:10;16.30;99.90
31207;DHT22;17834;52.992;8.856;2023-07-20T05:27:37;16.30;99.90
31207;DHT22;17834;52.992;8.856;2023-07-20T05:30:03;16.30;99.90
31207;DHT22;17834;52.992;8.856;2023-07-20T05:32:28;16.30;99.90
31207;DHT22;17834;52.992;8.856;2023-07-20T05:34:54;16.30;99.90
31207;DHT22;17834;52.992;8.856;2023-07-20T05:37:20;16.40;99.90
31207;DHT22;17834;52.992;8.856;2023-07-20T05:39:45;16.50;99.90
31207;DHT22;17834;52.992;8.856;2023-07-20T05:42:11;16.50;99.90
31207;DHT22;17834;52.992;8.856;2023-07-20T05:44:37;16.50;99.90
31207;DHT22;17834;52.992;8.856;2023-07-20T05:47:02;16.60;99.90
31207;DHT22;17834;52.992;8.856;2023-07-20T05:49:28;17.60;99.90
31207;DHT22;17834;52.992;8.856;2023-07-20T05:51:55;19.40;99.90
31207;DHT22;17834;52.992;8.856;2023-07-20T05:54:21;21.30;99.90
31207;DHT22;17834;52.992;8.856;2023-07-20T05:56:46;23.00;99.90
31207;DHT22;17834;52.992;8.856;2023-07-20T05:59:12;24.80;98.00
31207;DHT22;17834;52.992;8.856;2023-07-20T06:01:38;26.20;83.70
31207;DHT22;17834;52.992;8.856;2023-07-20T06:04:03;27.40;71.60
31207;DHT22;17834;52.992;8.856;2023-07-20T06:06:29;27.90;64.00
31207;DHT22;17834;52.992;8.856;2023-07-20T06:08:54;28.30;61.20
31207;DHT22;17834;52.992;8.856;2023-07-20T06:11:20;29.10;59.00
31207;DHT22;17834;52.992;8.856;2023-07-20T06:13:46;29.60;57.80
31207;DHT22;17834;52.992;8.856;2023-07-20T06:16:11;30.40;55.80
31207;DHT22;17834;52.992;8.856;2023-07-20T06:18:37;31.30;53.80
31207;DHT22;17834;52.992;8.856;2023-07-20T06:21:02;31.70;51.00
31207;DHT22;17834;52.992;8.856;2023-07-20T06:23:28;31.00;49.20
31207;DHT22;17834;52.992;8.856;2023-07-20T06:25:53;31.00;49.60
31207;DHT22;17834;52.992;8.856;2023-07-20T06:28:19;31.10;47.70
31207;DHT22;17834;52.992;8.856;2023-07-20T06:30:44;31.40;47.10
31207;DHT22;17834;52.992;8.856;2023-07-20T06:33:10;31.40;47.00
31207;DHT22;17834;52.992;8.856;2023-07-20T06:35:35;31.90;47.40
31207;DHT22;17834;52.992;8.856;2023-07-20T06:38:02;31.40;46.70
31207;DHT22;17834;52.992;8.856;2023-07-20T06:40:29;31.20;47.20
31207;DHT22;17834;52.992;8.856;2023-07-20T06:42:55;31.70;47.60
31207;DHT22;17834;52.992;8.856;2023-07-20T06:45:20;30.20;47.00
31207;DHT22;17834;52.992;8.856;2023-07-20T06:47:46;30.60;48.50
31207;DHT22;17834;52.992;8.856;2023-07-20T06:50:12;30.50;48.10
31207;DHT22;17834;52.992;8.856;2023-07-20T06:52:37;28.90;49.60
31207;DHT22;17834;52.992;8.856;2023-07-20T06:55:03;27.20;52.60
31207;DHT22;17834;52.992;8.856;2023-07-20T06:57:29;26.20;55.10
31207;DHT22;17834;52.992;8.856;2023-07-20T06:59:55;25.40;56.60
31207;DHT22;17834;52.992;8.856;2023-07-20T07:02:20;25.00;58.40
31207;DHT22;17834;52.992;8.856;2023-07-20T07:04:46;24.10;60.50
31207;DHT22;17834;52.992;8.856;2023-07-20T07:07:14;23.60;62.10
31207;DHT22;17834;52.992;8.856;2023-07-20T07:09:40;22.90;64.50
31207;DHT22;17834;52.992;8.856;2023-07-20T07:12:06;22.40;67.90
31207;DHT22;17834;52.992;8.856;2023-07-20T07:14:31;21.80;72.80
31207;DHT22;17834;52.992;8.856;2023-07-20T07:16:57;22.10;76.10
31207;DHT22;17834;52.992;8.856;2023-07-20T07:19:22;22.20;73.20
31207;DHT22;17834;52.992;8.856;2023-07-20T07:21:48;22.20;78.10
31207;DHT22;17834;52.992;8.856;2023-07-20T07:24:13;22.30;74.60
31207;DHT22;17834;52.992;8.856;2023-07-20T07:26:39;22.50;70.40
31207;DHT22;17834;52.992;8.856;2023-07-20T07:29:05;22.10;77.70
31207;DHT22;17834;52.992;8.856;2023-07-20T07:31:33;23.00;68.30
31207;DHT22;17834;52.992;8.856;2023-07-20T07:33:59;24.00;65.60
31207;DHT22;17834;52.992;8.856;2023-07-20T07:36:24;24.70;63.20
31207;DHT22;17834;52.992;8.856;2023-07-20T07:38:50;26.00;56.90
31207;DHT22;17834;52.992;8.856;2023-07-20T07:41:16;27.30;54.60
31207;DHT22;17834;52.992;8.856;2023-07-20T07:43:41;28.40;51.10
31207;DHT22;17834;52.992;8.856;2023-07-20T07:46:07;29.20;50.90
31207;DHT22;17834;52.992;8.856;2023-07-20T07:48:33;30.10;47.70
31207;DHT22;17834;52.992;8.856;2023-07-20T07:50:58;29.30;48.40
31207;DHT22;17834;52.992;8.856;2023-07-20T07:53:24;27.70;50.50
31207;DHT22;17834;52.992;8.856;2023-07-20T07:55:51;26.20;52.40
31207;DHT22;17834;52.992;8.856;2023-07-20T07:58:17;24.70;55.80
31207;DHT22;17834;52.992;8.856;2023-07-20T08:00:42;23.60;58.20
31207;DHT22;17834;52.992;8.856;2023-07-20T08:03:09;22.80;60.20
31207;DHT22;17834;52.992;8.856;2023-07-20T08:05:36;22.20;64.00
31207;DHT22;17834;52.992;8.856;2023-07-20T08:08:05;22.00;67.80
31207;DHT22;17834;52.992;8.856;2023-07-20T08:10:31;21.80;74.90
31207;DHT22;17834;52.992;8.856;2023-07-20T08:12:56;21.10;77.10
31207;DHT22;17834;52.992;8.856;2023-07-20T08:15:22;20.90;84.60
31207;DHT22;17834;52.992;8.856;2023-07-20T08:17:48;20.90;83.70
31207;DHT22;17834;52.992;8.856;2023-07-20T08:20:14;20.90;88.40
31207;DHT22;17834;52.992;8.856;2023-07-20T08:22:41;20.90;84.30
31207;DHT22;17834;52.992;8.856;2023-07-20T08:25:08;20.80;87.10
31207;DHT22;17834;52.992;8.856;2023-07-20T08:27:33;20.90;88.00
31207;DHT22;17834;52.992;8.856;2023-07-20T08:29:59;20.90;82.80
31207;DHT22;17834;52.992;8.856;2023-07-20T08:32:25;20.80;84.80
31207;DHT22;17834;52.992;8.856;2023-07-20T08:34:51;20.40;84.70
31207;DHT22;17834;52.992;8.856;2023-07-20T08:37:16;20.30;79.60
31207;DHT22;17834;52.992;8.856;2023-07-20T08:39:42;20.40;86.90
31207;DHT22;17834;52.992;8.856;2023-07-20T08:42:08;20.40;89.10
31207;DHT22;17834;52.992;8.856;2023-07-20T08:44:35;20.10;89.00
31207;DHT22;17834;52.992;8.856;2023-07-20T08:47:02;20.10;90.10
31207;DHT22;17834;52.992;8.856;2023-07-20T08:49:29;20.20;87.70
31207;DHT22;17834;52.992;8.856;2023-07-20T08:51:55;20.30;85.20
31207;DHT22;17834;52.992;8.856;2023-07-20T08:54:21;20.30;84.20
31207;DHT22;17834;52.992;8.856;2023-07-20T08:56:46;20.30;78.70
31207;DHT22;17834;52.992;8.856;2023-07-20T08:59:16;20.30;81.50
31207;DHT22;17834;52.992;8.856;2023-07-20T09:01:43;20.40;83.60
31207;DHT22;17834;52.992;8.856;2023-07-20T09:04:10;20.50;83.80
31207;DHT22;17834;52.992;8.856;2023-07-20T09:06:35;20.60;81.20
31207;DHT22;17834;52.992;8.856;2023-07-20T09:09:01;20.70;80.00
31207;DHT22;17834;52.992;8.856;2023-07-20T09:11:27;20.80;77.10
31207;DHT22;17834;52.992;8.856;2023-07-20T09:14:06;20.70;77.30
31207;DHT22;17834;52.992;8.856;2023-07-20T09:16:32;20.70;77.20
31207;DHT22;17834;52.992;8.856;2023-07-20T09:18:58;20.60;77.10
31207;DHT22;17834;52.992;8.856;2023-07-20T09:21:28;20.50;76.70
31207;DHT22;17834;52.992;8.856;2023-07-20T09:23:56;20.60;80.10
31207;DHT22;17834;52.992;8.856;2023-07-20T09:26:22;20.70;80.20
31207;DHT22;17834;52.992;8.856;2023-07-20T09:28:49;21.00;81.30
31207;DHT22;17834;52.992;8.856;2023-07-20T09:31:19;21.00;78.20
31207;DHT22;17834;52.992;8.856;2023-07-20T09:33:46;20.90;77.20
31207;DHT22;17834;52.992;8.856;2023-07-20T09:36:12;20.90;77.00
31207;DHT22;17834;52.992;8.856;2023-07-20T09:38:39;20.90;75.70
31207;DHT22;17834;52.992;8.856;2023-07-20T09:41:05;20.90;76.50
31207;DHT22;17834;52.992;8.856;2023-07-20T09:43:33;20.90;75.50
31207;DHT22;17834;52.992;8.856;2023-07-20T09:45:59;20.90;74.30
31207;DHT22;17834;52.992;8.856;2023-07-20T09:48:25;20.90;75.40
31207;DHT22;17834;52.992;8.856;2023-07-20T09:50:52;20.90;75.60
31207;DHT22;17834;52.992;8.856;2023-07-20T09:53:19;20.90;73.00
31207;DHT22;17834;52.992;8.856;2023-07-20T09:55:46;21.10;74.20
31207;DHT22;17834;52.992;8.856;2023-07-20T09:58:12;21.10;76.10
31207;DHT22;17834;52.992;8.856;2023-07-20T10:00:39;21.10;75.70
31207;DHT22;17834;52.992;8.856;2023-07-20T10:03:05;21.20;74.70
31207;DHT22;17834;52.992;8.856;2023-07-20T10:05:35;21.50;73.20
31207;DHT22;17834;52.992;8.856;2023-07-20T10:08:03;21.70;71.80
31207;DHT22;17834;52.992;8.856;2023-07-20T10:10:31;21.90;70.80
31207;DHT22;17834;52.992;8.856;2023-07-20T10:12:58;21.80;66.20
31207;DHT22;17834;52.992;8.856;2023-07-20T10:15:40;21.80;67.20
31207;DHT22;17834;52.992;8.856;2023-07-20T10:18:29;21.60;68.50
31207;DHT22;17834;52.992;8.856;2023-07-20T10:20:56;21.40;68.40
31207;DHT22;17834;52.992;8.856;2023-07-20T10:23:23;21.50;70.30
31207;DHT22;17834;52.992;8.856;2023-07-20T10:25:50;21.60;70.00
31207;DHT22;17834;52.992;8.856;2023-07-20T10:28:16;22.10;69.60
31207;DHT22;17834;52.992;8.856;2023-07-20T10:30:42;22.50;72.50
31207;DHT22;17834;52.992;8.856;2023-07-20T10:33:08;22.00;82.60
31207;DHT22;17834;52.992;8.856;2023-07-20T10:35:57;20.70;92.70
31207;DHT22;17834;52.992;8.856;2023-07-20T10:38:42;19.00;99.90
31207;DHT22;17834;52.992;8.856;2023-07-20T10:41:21;17.90;99.90
31207;DHT22;17834;52.992;8.856;2023-07-20T10:43:50;17.20;99.90
31207;DHT22;17834;52.992;8.856;2023-07-20T10:49:02;16.90;99.90
31207;DHT22;17834;52.992;8.856;2023-07-20T10:51:28;16.90;99.90
31207;DHT22;17834;52.992;8.856;2023-07-20T10:53:57;17.00;99.90
31207;DHT22;17834;52.992;8.856;2023-07-20T10:56:27;17.20;99.90
31207;DHT22;17834;52.992;8.856;2023-07-20T10:59:01;17.30;99.90
31207;DHT22;17834;52.992;8.856;2023-07-20T11:01:43;17.30;99.90
31207;DHT22;17834;52.992;8.856;2023-07-20T11:04:09;17.40;99.90
31207;DHT22;17834;52.992;8.856;2023-07-20T11:06:35;17.50;99.90
31207;DHT22;17834;52.992;8.856;2023-07-20T11:11:41;17.70;99.90
31207;DHT22;17834;52.992;8.856;2023-07-20T11:14:09;17.60;99.90
31207;DHT22;17834;52.992;8.856;2023-07-20T11:16:40;17.70;99.90
31207;DHT22;17834;52.992;8.856;2023-07-20T11:19:13;17.80;99.90
31207;DHT22;17834;52.992;8.856;2023-07-20T11:21:41;17.60;99.90
31207;DHT22;17834;52.992;8.856;2023-07-20T11:24:07;17.70;99.90
31207;DHT22;17834;52.992;8.856;2023-07-20T11:26:44;17.90;99.90
31207;DHT22;17834;52.992;8.856;2023-07-20T11:29:11;18.10;99.90
31207;DHT22;17834;52.992;8.856;2023-07-20T11:31:41;18.20;99.90
31207;DHT22;17834;52.992;8.856;2023-07-20T11:34:14;18.30;99.90
31207;DHT22;17834;52.992;8.856;2023-07-20T11:36:41;18.30;99.90
31207;DHT22;17834;52.992;8.856;2023-07-20T11:39:15;18.20;99.90
31207;DHT22;17834;52.992;8.856;2023-07-20T11:41:51;18.00;99.90
31207;DHT22;17834;52.992;8.856;2023-07-20T11:44:20;18.00;99.90
31207;DHT22;17834;52.992;8.856;2023-07-20T11:46:59;17.90;99.90
31207;DHT22;17834;52.992;8.856;2023-07-20T11:49:25;18.10;99.90
31207;DHT22;17834;52.992;8.856;2023-07-20T11:51:51;18.10;99.90
31207;DHT22;17834;52.992;8.856;2023-07-20T11:54:16;18.20;99.90
31207;DHT22;17834;52.992;8.856;2023-07-20T11:56:42;18.40;99.90
31207;DHT22;17834;52.992;8.856;2023-07-20T11:59:08;18.40;99.90
31207;DHT22;17834;52.992;8.856;2023-07-20T12:01:33;18.30;99.90
31207;DHT22;17834;52.992;8.856;2023-07-20T12:04:02;18.00;99.90
31207;DHT22;17834;52.992;8.856;2023-07-20T12:06:29;18.00;99.90
31207;DHT22;17834;52.992;8.856;2023-07-20T12:08:58;18.20;99.90
31207;DHT22;17834;52.992;8.856;2023-07-20T12:11:36;18.40;99.90
31207;DHT22;17834;52.992;8.856;2023-07-20T12:14:03;18.70;99.90
31207;DHT22;17834;52.992;8.856;2023-07-20T12:16:30;19.10;99.90
31207;DHT22;17834;52.992;8.856;2023-07-20T12:21:25;19.80;99.90
31207;DHT22;17834;52.992;8.856;2023-07-20T12:23:51;20.30;99.90
31207;DHT22;17834;52.992;8.856;2023-07-20T12:26:16;20.60;99.90
31207;DHT22;17834;52.992;8.856;2023-07-20T12:28:42;20.60;99.90
31207;DHT22;17834;52.992;8.856;2023-07-20T12:31:10;20.60;99.90
31207;DHT22;17834;52.992;8.856;2023-07-20T12:33:36;20.50;99.90
31207;DHT22;17834;52.992;8.856;2023-07-20T12:36:03;20.10;99.90
31207;DHT22;17834;52.992;8.856;2023-07-20T12:40:56;18.30;99.90
31207;DHT22;17834;52.992;8.856;2023-07-20T12:43:22;17.50;99.90
31207;DHT22;17834;52.992;8.856;2023-07-20T12:45:48;16.80;99.90
31207;DHT22;17834;52.992;8.856;2023-07-20T12:48:13;16.70;99.90
31207;DHT22;17834;52.992;8.856;2023-07-20T12:50:39;16.70;99.90
31207;DHT22;17834;52.992;8.856;2023-07-20T12:53:05;16.80;99.90
31207;DHT22;17834;52.992;8.856;2023-07-20T12:55:30;17.00;99.90
31207;DHT22;17834;52.992;8.856;2023-07-20T12:57:56;17.10;99.90
31207;DHT22;17834;52.992;8.856;2023-07-20T13:00:22;17.20;99.90
31207;DHT22;17834;52.992;8.856;2023-07-20T13:02:51;17.30;99.90
31207;DHT22;17834;52.992;8.856;2023-07-20T13:05:17;17.40;99.90
31207;DHT22;17834;52.992;8.856;2023-07-20T13:07:43;17.60;99.90
31207;DHT22;17834;52.992;8.856;2023-07-20T13:10:09;17.70;99.90
31207;DHT22;17834;52.992;8.856;2023-07-20T13:12:36;17.80;99.90
31207;DHT22;17834;52.992;8.856;2023-07-20T13:15:06;17.60;99.90
31207;DHT22;17834;52.992;8.856;2023-07-20T13:17:36;17.70;99.90
31207;DHT22;17834;52.992;8.856;2023-07-20T13:20:03;17.70;99.90
31207;DHT22;17834;52.992;8.856;2023-07-20T13:22:32;17.70;99.90
31207;DHT22;17834;52.992;8.856;2023-07-20T13:24:58;17.60;99.90
31207;DHT22;17834;52.992;8.856;2023-07-20T13:27:24;17.50;99.90
31207;DHT22;17834;52.992;8.856;2023-07-20T13:29:51;17.60;99.90
31207;DHT22;17834;52.992;8.856;2023-07-20T13:32:17;17.70;99.90
31207;DHT22;17834;52.992;8.856;2023-07-20T13:34:44;17.70;99.90
31207;DHT22;17834;52.992;8.856;2023-07-20T13:37:13;17.90;99.90
31207;DHT22;17834;52.992;8.856;2023-07-20T13:39:39;17.90;99.90
31207;DHT22;17834;52.992;8.856;2023-07-20T13:42:05;18.00;99.90
31207;DHT22;17834;52.992;8.856;2023-07-20T13:44:34;18.00;99.90
31207;DHT22;17834;52.992;8.856;2023-07-20T13:47:01;18.10;99.90
31207;DHT22;17834;52.992;8.856;2023-07-20T13:49:27;18.10;99.90
31207;DHT22;17834;52.992;8.856;2023-07-20T13:51:52;18.20;99.90
31207;DHT22;17834;52.992;8.856;2023-07-20T13:54:18;18.30;99.90
31207;DHT22;17834;52.992;8.856;2023-07-20T13:56:43;18.50;99.90
31207;DHT22;17834;52.992;8.856;2023-07-20T13:59:09;18.70;99.90
31207;DHT22;17834;52.992;8.856;2023-07-20T14:01:35;19.00;99.90
31207;DHT22;17834;52.992;8.856;2023-07-20T14:04:01;19.20;99.90
31207;DHT22;17834;52.992;8.856;2023-07-20T14:06:30;19.30;99.90
31207;DHT22;17834;52.992;8.856;2023-07-20T14:08:56;19.40;99.90
31207;DHT22;17834;52.992;8.856;2023-07-20T14:11:22;19.40;99.90
31207;DHT22;17834;52.992;8.856;2023-07-20T14:13:47;19.30;99.90
31207;DHT22;17834;52.992;8.856;2023-07-20T14:16:13;19.20;99.90
31207;DHT22;17834;52.992;8.856;2023-07-20T14:18:39;19.20;99.90
31207;DHT22;17834;52.992;8.856;2023-07-20T14:21:05;19.20;99.90
31207;DHT22;17834;52.992;8.856;2023-07-20T14:23:32;19.30;99.90
31207;DHT22;17834;52.992;8.856;2023-07-20T14:25:57;19.40;99.90
31207;DHT22;17834;52.992;8.856;2023-07-20T14:28:24;19.50;99.90
31207;DHT22;17834;52.992;8.856;2023-07-20T14:30:49;19.60;99.90
31207;DHT22;17834;52.992;8.856;2023-07-20T14:33:15;19.60;99.90
31207;DHT22;17834;52.992;8.856;2023-07-20T14:35:42;19.60;99.90
31207;DHT22;17834;52.992;8.856;2023-07-20T14:38:07;19.70;99.90
31207;DHT22;17834;52.992;8.856;2023-07-20T14:40:33;19.70;99.90
31207;DHT22;17834;52.992;8.856;2023-07-20T14:42:59;19.70;99.90
31207;DHT22;17834;52.992;8.856;2023-07-20T14:45:27;19.70;99.90
31207;DHT22;17834;52.992;8.856;2023-07-20T14:47:52;19.80;99.90
31207;DHT22;17834;52.992;8.856;2023-07-20T14:50:20;19.80;99.90
31207;DHT22;17834;52.992;8.856;2023-07-20T14:52:46;19.90;99.90
31207;DHT22;17834;52.992;8.856;2023-07-20T14:55:11;19.90;99.90
31207;DHT22;17834;52.992;8.856;2023-07-20T14:57:37;20.00;99.90
31207;DHT22;17834;52.992;8.856;2023-07-20T15:00:03;20.10;99.90
31207;DHT22;17834;52.992;8.856;2023-07-20T15:02:33;20.40;99.90
31207;DHT22;17834;52.992;8.856;2023-07-20T15:04:59;20.40;99.90
31207;DHT22;17834;52.992;8.856;2023-07-20T15:07:25;20.80;99.90
31207;DHT22;17834;52.992;8.856;2023-07-20T15:09:50;21.10;99.90
31207;DHT22;17834;52.992;8.856;2023-07-20T15:12:16;21.30;99.90
31207;DHT22;17834;52.992;8.856;2023-07-20T15:14:43;21.50;99.90
31207;DHT22;17834;52.992;8.856;2023-07-20T15:17:12;21.60;99.90
31207;DHT22;17834;52.992;8.856;2023-07-20T15:19:38;21.60;99.90
31207;DHT22;17834;52.992;8.856;2023-07-20T15:22:04;21.40;99.90
31207;DHT22;17834;52.992;8.856;2023-07-20T15:24:30;21.30;99.90
31207;DHT22;17834;52.992;8.856;2023-07-20T15:26:55;21.10;99.90
31207;DHT22;17834;52.992;8.856;2023-07-20T15:29:23;21.00;99.90
31207;DHT22;17834;52.992;8.856;2023-07-20T15:31:48;21.00;99.90
31207;DHT22;17834;52.992;8.856;2023-07-20T15:34:14;21.10;99.90
31207;DHT22;17834;52.992;8.856;2023-07-20T15:36:40;21.20;99.90
31207;DHT22;17834;52.992;8.856;2023-07-20T15:39:07;21.20;99.90
31207;DHT22;17834;52.992;8.856;2023-07-20T15:41:33;21.20;99.90
31207;DHT22;17834;52.992;8.856;2023-07-20T15:43:59;21.40;99.90